sensor_id;sensor_type;location;lat;lon;timestamp;P1;durP1;ratioP1;P2;durP2;ratioP2
11665;SDS011;5889;51.350;6.708;2024-03-02T00:01:29;3.33;;;1.67;;
11665;SDS011;5889;51.350;6.708;2024-03-02T00:03:56;2.97;;;1.77;;
11665;SDS011;5889;51.350;6.708;2024-03-02T00:06:23;2.17;;;1.80;;
11665;SDS011;5889;51.350;6.708;2024-03-02T00:08:50;5.33;;;2.20;;
11665;SDS011;5889;51.350;6.708;2024-03-02T00:11:17;2.17;;;1.70;;
11665;SDS011;5889;51.350;6.708;2024-03-02T00:13:44;2.37;;;1.80;;
11665;SDS011;5889;51.350;6.708;2024-03-02T00:16:11;2.17;;;1.90;;
11665;SDS011;5889;51.350;6.708;2024-03-02T00:18:40;3.83;;;1.80;;
11665;SDS011;5889;51.350;6.708;2024-03-02T00:21:07;2.50;;;1.70;;
11665;SDS011;5889;51.350;6.708;2024-03-02T00:23:36;3.70;;;1.50;;
11665;SDS011;5889;51.350;6.708;2024-03-02T00:26:03;2.83;;;2.07;;
11665;SDS011;5889;51.350;6.708;2024-03-02T00:28:32;2.83;;;2.07;;
11665;SDS011;5889;51.350;6.708;2024-03-02T00:31:01;1.93;;;1.60;;
11665;SDS011;5889;51.350;6.708;2024-03-02T00:33:32;2.80;;;2.20;;
11665;SDS011;5889;51.350;6.708;2024-03-02T00:36:01;3.07;;;1.80;;
11665;SDS011;5889;51.350;6.708;2024-03-02T00:38:30;1.93;;;1.73;;
11665;SDS011;5889;51.350;6.708;2024-03-02T00:40:58;2.40;;;1.70;;
11665;SDS011;5889;51.350;6.708;2024-03-02T00:46:32;2.50;;;1.80;;
11665;SDS011;5889;51.350;6.708;2024-03-02T00:49:00;1.93;;;1.70;;
11665;SDS011;5889;51.350;6.708;2024-03-02T00:51:31;2.33;;;1.47;;
11665;SDS011;5889;51.350;6.708;2024-03-02T00:53:59;4.03;;;1.93;;
11665;SDS011;5889;51.350;6.708;2024-03-02T00:56:29;4.00;;;1.60;;
11665;SDS011;5889;51.350;6.708;2024-03-02T00:58:56;3.57;;;1.80;;
11665;SDS011;5889;51.350;6.708;2024-03-02T01:01:23;6.27;;;2.10;;
11665;SDS011;5889;51.350;6.708;2024-03-02T01:03:50;3.40;;;1.90;;
11665;SDS011;5889;51.350;6.708;2024-03-02T01:06:17;3.20;;;2.50;;
11665;SDS011;5889;51.350;6.708;2024-03-02T01:08:45;3.03;;;1.90;;
11665;SDS011;5889;51.350;6.708;2024-03-02T01:11:16;4.27;;;1.90;;
11665;SDS011;5889;51.350;6.708;2024-03-02T01:13:42;2.33;;;1.90;;
11665;SDS011;5889;51.350;6.708;2024-03-02T01:16:09;3.20;;;1.83;;
11665;SDS011;5889;51.350;6.708;2024-03-02T01:18:36;3.97;;;2.00;;
11665;SDS011;5889;51.350;6.708;2024-03-02T01:21:03;2.37;;;1.57;;
11665;SDS011;5889;51.350;6.708;2024-03-02T01:23:30;1.83;;;1.47;;
11665;SDS011;5889;51.350;6.708;2024-03-02T01:25:58;5.97;;;2.03;;
11665;SDS011;5889;51.350;6.708;2024-03-02T01:28:25;4.80;;;1.80;;
11665;SDS011;5889;51.350;6.708;2024-03-02T01:30:52;3.33;;;1.90;;
11665;SDS011;5889;51.350;6.708;2024-03-02T01:33:20;2.50;;;1.77;;
11665;SDS011;5889;51.350;6.708;2024-03-02T01:35:47;2.30;;;1.57;;
11665;SDS011;5889;51.350;6.708;2024-03-02T01:38:14;2.97;;;1.90;;
11665;SDS011;5889;51.350;6.708;2024-03-02T01:40:41;1.83;;;1.30;;
11665;SDS011;5889;51.350;6.708;2024-03-02T01:43:11;3.03;;;1.80;;
11665;SDS011;5889;51.350;6.708;2024-03-02T01:45:38;4.10;;;1.77;;
11665;SDS011;5889;51.350;6.708;2024-03-02T01:48:05;3.40;;;1.50;;
11665;SDS011;5889;51.350;6.708;2024-03-02T01:50:33;2.83;;;1.53;;
11665;SDS011;5889;51.350;6.708;2024-03-02T01:53:00;1.63;;;1.47;;
11665;SDS011;5889;51.350;6.708;2024-03-02T01:55:27;3.87;;;2.20;;
11665;SDS011;5889;51.350;6.708;2024-03-02T01:57:55;1.90;;;1.50;;
11665;SDS011;5889;51.350;6.708;2024-03-02T02:00:24;3.30;;;1.50;;
11665;SDS011;5889;51.350;6.708;2024-03-02T02:02:51;3.30;;;1.70;;
11665;SDS011;5889;51.350;6.708;2024-03-02T02:05:19;3.50;;;1.60;;
11665;SDS011;5889;51.350;6.708;2024-03-02T02:07:45;4.67;;;1.67;;
11665;SDS011;5889;51.350;6.708;2024-03-02T02:10:12;2.37;;;1.50;;
11665;SDS011;5889;51.350;6.708;2024-03-02T02:12:39;3.00;;;1.77;;
11665;SDS011;5889;51.350;6.708;2024-03-02T02:15:21;3.20;;;1.40;;
11665;SDS011;5889;51.350;6.708;2024-03-02T02:17:50;3.60;;;2.07;;
11665;SDS011;5889;51.350;6.708;2024-03-02T02:20:17;3.03;;;1.60;;
11665;SDS011;5889;51.350;6.708;2024-03-02T02:22:56;2.20;;;1.40;;
11665;SDS011;5889;51.350;6.708;2024-03-02T02:25:24;2.70;;;1.40;;
11665;SDS011;5889;51.350;6.708;2024-03-02T02:27:51;3.20;;;1.67;;
11665;SDS011;5889;51.350;6.708;2024-03-02T02:30:19;3.83;;;1.43;;
11665;SDS011;5889;51.350;6.708;2024-03-02T02:32:47;2.30;;;1.47;;
11665;SDS011;5889;51.350;6.708;2024-03-02T02:35:14;1.50;;;1.20;;
11665;SDS011;5889;51.350;6.708;2024-03-02T02:37:41;2.77;;;1.50;;
11665;SDS011;5889;51.350;6.708;2024-03-02T02:40:11;2.33;;;1.60;;
11665;SDS011;5889;51.350;6.708;2024-03-02T02:42:40;2.80;;;1.70;;
11665;SDS011;5889;51.350;6.708;2024-03-02T02:47:49;4.37;;;1.50;;
11665;SDS011;5889;51.350;6.708;2024-03-02T02:50:16;2.50;;;1.37;;
11665;SDS011;5889;51.350;6.708;2024-03-02T02:52:43;2.00;;;1.43;;
11665;SDS011;5889;51.350;6.708;2024-03-02T02:55:14;2.27;;;1.60;;
11665;SDS011;5889;51.350;6.708;2024-03-02T02:57:42;3.93;;;2.00;;
11665;SDS011;5889;51.350;6.708;2024-03-02T03:00:10;2.40;;;1.47;;
11665;SDS011;5889;51.350;6.708;2024-03-02T03:02:39;1.63;;;1.50;;
11665;SDS011;5889;51.350;6.708;2024-03-02T03:05:07;5.10;;;1.90;;
11665;SDS011;5889;51.350;6.708;2024-03-02T03:07:35;2.50;;;1.60;;
11665;SDS011;5889;51.350;6.708;2024-03-02T03:10:03;1.80;;;1.50;;
11665;SDS011;5889;51.350;6.708;2024-03-02T03:12:33;4.23;;;1.70;;
11665;SDS011;5889;51.350;6.708;2024-03-02T03:15:00;2.60;;;1.53;;
11665;SDS011;5889;51.350;6.708;2024-03-02T03:17:28;4.53;;;2.00;;
11665;SDS011;5889;51.350;6.708;2024-03-02T03:19:55;4.40;;;1.63;;
11665;SDS011;5889;51.350;6.708;2024-03-02T03:22:22;3.00;;;1.60;;
11665;SDS011;5889;51.350;6.708;2024-03-02T03:24:49;3.50;;;2.30;;
11665;SDS011;5889;51.350;6.708;2024-03-02T03:27:16;3.13;;;1.63;;
11665;SDS011;5889;51.350;6.708;2024-03-02T03:29:46;2.93;;;2.00;;
11665;SDS011;5889;51.350;6.708;2024-03-02T03:32:13;1.70;;;1.60;;
11665;SDS011;5889;51.350;6.708;2024-03-02T03:34:40;3.70;;;1.80;;
11665;SDS011;5889;51.350;6.708;2024-03-02T03:37:06;2.67;;;1.77;;
11665;SDS011;5889;51.350;6.708;2024-03-02T03:39:34;2.17;;;1.80;;
11665;SDS011;5889;51.350;6.708;2024-03-02T03:42:01;2.53;;;1.77;;
11665;SDS011;5889;51.350;6.708;2024-03-02T03:44:28;2.90;;;1.70;;
11665;SDS011;5889;51.350;6.708;2024-03-02T03:46:57;4.47;;;1.80;;
11665;SDS011;5889;51.350;6.708;2024-03-02T03:49:24;3.73;;;1.80;;
11665;SDS011;5889;51.350;6.708;2024-03-02T03:51:51;4.63;;;2.67;;
11665;SDS011;5889;51.350;6.708;2024-03-02T03:54:18;3.30;;;2.00;;
11665;SDS011;5889;51.350;6.708;2024-03-02T03:56:45;4.40;;;1.93;;
11665;SDS011;5889;51.350;6.708;2024-03-02T03:59:11;2.00;;;1.67;;
11665;SDS011;5889;51.350;6.708;2024-03-02T04:01:38;2.43;;;1.50;;
11665;SDS011;5889;51.350;6.708;2024-03-02T04:04:07;3.67;;;1.90;;
11665;SDS011;5889;51.350;6.708;2024-03-02T04:06:34;2.37;;;1.53;;
11665;SDS011;5889;51.350;6.708;2024-03-02T04:09:00;3.07;;;1.60;;
11665;SDS011;5889;51.350;6.708;2024-03-02T04:11:29;2.07;;;1.47;;
11665;SDS011;5889;51.350;6.708;2024-03-02T04:13:56;3.57;;;1.80;;
11665;SDS011;5889;51.350;6.708;2024-03-02T04:16:23;1.90;;;1.60;;
11665;SDS011;5889;51.350;6.708;2024-03-02T04:18:50;3.53;;;1.90;;
11665;SDS011;5889;51.350;6.708;2024-03-02T04:21:18;4.43;;;1.53;;
11665;SDS011;5889;51.350;6.708;2024-03-02T04:23:45;3.07;;;1.67;;
11665;SDS011;5889;51.350;6.708;2024-03-02T04:26:13;2.53;;;1.60;;
11665;SDS011;5889;51.350;6.708;2024-03-02T04:28:44;5.40;;;1.70;;
11665;SDS011;5889;51.350;6.708;2024-03-02T04:31:11;3.93;;;2.40;;
11665;SDS011;5889;51.350;6.708;2024-03-02T04:33:38;2.87;;;1.50;;
11665;SDS011;5889;51.350;6.708;2024-03-02T04:36:05;1.73;;;1.43;;
11665;SDS011;5889;51.350;6.708;2024-03-02T04:38:35;3.60;;;1.77;;
11665;SDS011;5889;51.350;6.708;2024-03-02T04:41:03;3.27;;;1.50;;
11665;SDS011;5889;51.350;6.708;2024-03-02T04:43:31;2.40;;;1.50;;
11665;SDS011;5889;51.350;6.708;2024-03-02T04:45:58;3.97;;;1.93;;
11665;SDS011;5889;51.350;6.708;2024-03-02T04:48:25;3.60;;;1.83;;
11665;SDS011;5889;51.350;6.708;2024-03-02T04:50:52;3.43;;;1.80;;
11665;SDS011;5889;51.350;6.708;2024-03-02T04:53:19;3.70;;;1.90;;
11665;SDS011;5889;51.350;6.708;2024-03-02T04:55:47;3.80;;;2.10;;
11665;SDS011;5889;51.350;6.708;2024-03-02T04:58:28;2.83;;;1.73;;
11665;SDS011;5889;51.350;6.708;2024-03-02T05:00:55;4.93;;;1.70;;
11665;SDS011;5889;51.350;6.708;2024-03-02T05:03:22;2.53;;;1.50;;
11665;SDS011;5889;51.350;6.708;2024-03-02T05:05:49;4.03;;;1.90;;
11665;SDS011;5889;51.350;6.708;2024-03-02T05:08:16;4.80;;;1.80;;
11665;SDS011;5889;51.350;6.708;2024-03-02T05:10:43;2.40;;;1.90;;
11665;SDS011;5889;51.350;6.708;2024-03-02T05:13:12;4.53;;;1.80;;
11665;SDS011;5889;51.350;6.708;2024-03-02T05:15:38;3.27;;;1.80;;
11665;SDS011;5889;51.350;6.708;2024-03-02T05:18:05;2.17;;;1.63;;
11665;SDS011;5889;51.350;6.708;2024-03-02T05:20:32;4.60;;;1.73;;
11665;SDS011;5889;51.350;6.708;2024-03-02T05:22:59;3.83;;;1.80;;
11665;SDS011;5889;51.350;6.708;2024-03-02T05:25:26;4.23;;;1.80;;
11665;SDS011;5889;51.350;6.708;2024-03-02T05:27:53;2.60;;;1.70;;
11665;SDS011;5889;51.350;6.708;2024-03-02T05:30:22;1.70;;;1.53;;
11665;SDS011;5889;51.350;6.708;2024-03-02T05:32:51;3.07;;;1.80;;
11665;SDS011;5889;51.350;6.708;2024-03-02T05:35:18;3.93;;;1.80;;
11665;SDS011;5889;51.350;6.708;2024-03-02T05:37:45;2.37;;;1.60;;
11665;SDS011;5889;51.350;6.708;2024-03-02T05:40:12;2.10;;;1.60;;
11665;SDS011;5889;51.350;6.708;2024-03-02T05:42:39;1.97;;;1.50;;
11665;SDS011;5889;51.350;6.708;2024-03-02T05:45:06;2.30;;;1.80;;
11665;SDS011;5889;51.350;6.708;2024-03-02T05:47:35;2.60;;;1.90;;
11665;SDS011;5889;51.350;6.708;2024-03-02T05:50:03;4.23;;;1.90;;
11665;SDS011;5889;51.350;6.708;2024-03-02T05:52:32;2.63;;;1.73;;
11665;SDS011;5889;51.350;6.708;2024-03-02T05:54:59;4.13;;;2.03;;
11665;SDS011;5889;51.350;6.708;2024-03-02T05:57:25;3.20;;;2.03;;
11665;SDS011;5889;51.350;6.708;2024-03-02T06:00:10;5.77;;;2.17;;
11665;SDS011;5889;51.350;6.708;2024-03-02T06:02:40;3.80;;;1.93;;
11665;SDS011;5889;51.350;6.708;2024-03-02T06:05:07;5.63;;;2.00;;
11665;SDS011;5889;51.350;6.708;2024-03-02T06:07:34;6.93;;;2.10;;
11665;SDS011;5889;51.350;6.708;2024-03-02T06:10:01;2.43;;;2.10;;
11665;SDS011;5889;51.350;6.708;2024-03-02T06:12:28;3.60;;;1.60;;
11665;SDS011;5889;51.350;6.708;2024-03-02T06:14:57;6.47;;;2.10;;
11665;SDS011;5889;51.350;6.708;2024-03-02T06:17:24;3.73;;;2.10;;
11665;SDS011;5889;51.350;6.708;2024-03-02T06:19:52;3.83;;;1.90;;
11665;SDS011;5889;51.350;6.708;2024-03-02T06:22:19;3.00;;;2.13;;
11665;SDS011;5889;51.350;6.708;2024-03-02T06:24:48;2.53;;;1.80;;
11665;SDS011;5889;51.350;6.708;2024-03-02T06:27:14;3.17;;;2.20;;
11665;SDS011;5889;51.350;6.708;2024-03-02T06:29:42;5.57;;;2.37;;
11665;SDS011;5889;51.350;6.708;2024-03-02T06:32:09;4.13;;;2.20;;
11665;SDS011;5889;51.350;6.708;2024-03-02T06:34:36;4.13;;;2.07;;
11665;SDS011;5889;51.350;6.708;2024-03-02T06:37:04;4.17;;;2.30;;
11665;SDS011;5889;51.350;6.708;2024-03-02T06:39:31;4.30;;;2.40;;
11665;SDS011;5889;51.350;6.708;2024-03-02T06:41:59;4.40;;;2.40;;
11665;SDS011;5889;51.350;6.708;2024-03-02T06:44:26;3.87;;;2.27;;
11665;SDS011;5889;51.350;6.708;2024-03-02T06:46:53;3.20;;;2.20;;
11665;SDS011;5889;51.350;6.708;2024-03-02T06:49:20;3.43;;;2.07;;
11665;SDS011;5889;51.350;6.708;2024-03-02T06:51:47;6.27;;;2.73;;
11665;SDS011;5889;51.350;6.708;2024-03-02T06:54:16;5.23;;;2.30;;
11665;SDS011;5889;51.350;6.708;2024-03-02T06:56:43;4.37;;;2.53;;
11665;SDS011;5889;51.350;6.708;2024-03-02T06:59:10;4.67;;;2.40;;
11665;SDS011;5889;51.350;6.708;2024-03-02T07:01:37;4.37;;;2.43;;
11665;SDS011;5889;51.350;6.708;2024-03-02T07:04:04;2.83;;;2.20;;
11665;SDS011;5889;51.350;6.708;2024-03-02T07:06:31;4.60;;;2.57;;
11665;SDS011;5889;51.350;6.708;2024-03-02T07:08:58;5.30;;;2.30;;
11665;SDS011;5889;51.350;6.708;2024-03-02T07:11:26;5.73;;;2.30;;
11665;SDS011;5889;51.350;6.708;2024-03-02T07:13:53;4.30;;;2.27;;
11665;SDS011;5889;51.350;6.708;2024-03-02T07:16:20;4.83;;;2.53;;
11665;SDS011;5889;51.350;6.708;2024-03-02T07:18:53;3.73;;;2.13;;
11665;SDS011;5889;51.350;6.708;2024-03-02T07:21:21;6.27;;;2.67;;
11665;SDS011;5889;51.350;6.708;2024-03-02T07:23:48;2.97;;;2.13;;
11665;SDS011;5889;51.350;6.708;2024-03-02T07:26:15;5.53;;;2.40;;
11665;SDS011;5889;51.350;6.708;2024-03-02T07:28:48;6.00;;;2.60;;
11665;SDS011;5889;51.350;6.708;2024-03-02T07:31:15;3.97;;;2.30;;
11665;SDS011;5889;51.350;6.708;2024-03-02T07:33:43;4.23;;;2.47;;
11665;SDS011;5889;51.350;6.708;2024-03-02T07:36:11;2.87;;;1.97;;
11665;SDS011;5889;51.350;6.708;2024-03-02T07:38:38;4.97;;;2.30;;
11665;SDS011;5889;51.350;6.708;2024-03-02T07:41:05;3.83;;;2.50;;
11665;SDS011;5889;51.350;6.708;2024-03-02T07:43:33;4.80;;;2.23;;
11665;SDS011;5889;51.350;6.708;2024-03-02T07:46:02;3.17;;;2.50;;
11665;SDS011;5889;51.350;6.708;2024-03-02T07:48:29;3.67;;;2.40;;
11665;SDS011;5889;51.350;6.708;2024-03-02T07:50:56;4.07;;;2.43;;
11665;SDS011;5889;51.350;6.708;2024-03-02T07:53:23;3.37;;;2.37;;
11665;SDS011;5889;51.350;6.708;2024-03-02T07:55:50;3.47;;;2.20;;
11665;SDS011;5889;51.350;6.708;2024-03-02T07:58:17;5.07;;;2.50;;
11665;SDS011;5889;51.350;6.708;2024-03-02T08:00:44;5.57;;;2.60;;
11665;SDS011;5889;51.350;6.708;2024-03-02T08:03:13;3.53;;;2.13;;
11665;SDS011;5889;51.350;6.708;2024-03-02T08:05:40;4.50;;;2.23;;
11665;SDS011;5889;51.350;6.708;2024-03-02T08:08:07;4.43;;;2.30;;
11665;SDS011;5889;51.350;6.708;2024-03-02T08:10:34;5.17;;;2.60;;
11665;SDS011;5889;51.350;6.708;2024-03-02T08:13:01;5.17;;;2.70;;
11665;SDS011;5889;51.350;6.708;2024-03-02T08:15:28;5.03;;;2.57;;
11665;SDS011;5889;51.350;6.708;2024-03-02T08:17:55;4.53;;;2.50;;
11665;SDS011;5889;51.350;6.708;2024-03-02T08:20:24;6.73;;;2.67;;
11665;SDS011;5889;51.350;6.708;2024-03-02T08:22:51;6.30;;;2.30;;
11665;SDS011;5889;51.350;6.708;2024-03-02T08:25:20;5.17;;;2.80;;
11665;SDS011;5889;51.350;6.708;2024-03-02T08:27:47;3.20;;;2.37;;
11665;SDS011;5889;51.350;6.708;2024-03-02T08:30:14;6.43;;;2.40;;
11665;SDS011;5889;51.350;6.708;2024-03-02T08:32:41;4.93;;;2.40;;
11665;SDS011;5889;51.350;6.708;2024-03-02T08:35:08;3.23;;;2.50;;
11665;SDS011;5889;51.350;6.708;2024-03-02T08:37:36;6.27;;;2.73;;
11665;SDS011;5889;51.350;6.708;2024-03-02T08:40:06;4.10;;;2.70;;
11665;SDS011;5889;51.350;6.708;2024-03-02T08:42:34;3.83;;;2.43;;
11665;SDS011;5889;51.350;6.708;2024-03-02T08:45:01;3.17;;;2.30;;
11665;SDS011;5889;51.350;6.708;2024-03-02T08:47:28;3.57;;;2.37;;
11665;SDS011;5889;51.350;6.708;2024-03-02T08:49:55;4.33;;;2.40;;
11665;SDS011;5889;51.350;6.708;2024-03-02T08:52:22;3.10;;;2.20;;
11665;SDS011;5889;51.350;6.708;2024-03-02T08:54:50;3.53;;;2.30;;
11665;SDS011;5889;51.350;6.708;2024-03-02T08:57:19;4.40;;;2.50;;
11665;SDS011;5889;51.350;6.708;2024-03-02T08:59:47;4.50;;;2.37;;
11665;SDS011;5889;51.350;6.708;2024-03-02T09:02:14;4.07;;;2.00;;
11665;SDS011;5889;51.350;6.708;2024-03-02T09:04:42;5.00;;;2.23;;
11665;SDS011;5889;51.350;6.708;2024-03-02T09:07:09;7.27;;;2.50;;
11665;SDS011;5889;51.350;6.708;2024-03-02T09:09:36;4.83;;;2.40;;
11665;SDS011;5889;51.350;6.708;2024-03-02T09:12:06;3.93;;;2.40;;
11665;SDS011;5889;51.350;6.708;2024-03-02T09:14:34;3.30;;;2.17;;
11665;SDS011;5889;51.350;6.708;2024-03-02T09:17:02;2.40;;;1.90;;
11665;SDS011;5889;51.350;6.708;2024-03-02T09:19:29;2.30;;;1.60;;
11665;SDS011;5889;51.350;6.708;2024-03-02T09:21:56;2.20;;;1.40;;
11665;SDS011;5889;51.350;6.708;2024-03-02T09:24:23;3.30;;;1.40;;
11665;SDS011;5889;51.350;6.708;2024-03-02T09:26:51;1.93;;;1.20;;
11665;SDS011;5889;51.350;6.708;2024-03-02T09:29:19;2.17;;;1.30;;
11665;SDS011;5889;51.350;6.708;2024-03-02T09:31:46;2.20;;;1.30;;
11665;SDS011;5889;51.350;6.708;2024-03-02T09:34:14;2.43;;;1.50;;
11665;SDS011;5889;51.350;6.708;2024-03-02T09:36:41;3.43;;;1.27;;
11665;SDS011;5889;51.350;6.708;2024-03-02T09:39:08;5.67;;;1.40;;
11665;SDS011;5889;51.350;6.708;2024-03-02T09:41:35;3.13;;;1.33;;
11665;SDS011;5889;51.350;6.708;2024-03-02T09:44:03;2.90;;;1.20;;
11665;SDS011;5889;51.350;6.708;2024-03-02T09:46:32;3.30;;;0.90;;
11665;SDS011;5889;51.350;6.708;2024-03-02T09:49:01;1.73;;;1.00;;
11665;SDS011;5889;51.350;6.708;2024-03-02T09:51:28;1.80;;;1.00;;
11665;SDS011;5889;51.350;6.708;2024-03-02T09:53:55;3.53;;;1.10;;
11665;SDS011;5889;51.350;6.708;2024-03-02T09:56:22;1.87;;;0.90;;
11665;SDS011;5889;51.350;6.708;2024-03-02T09:58:49;2.20;;;0.80;;
11665;SDS011;5889;51.350;6.708;2024-03-02T10:01:17;2.20;;;0.97;;
11665;SDS011;5889;51.350;6.708;2024-03-02T10:03:45;2.43;;;1.00;;
11665;SDS011;5889;51.350;6.708;2024-03-02T10:06:18;1.80;;;1.00;;
11665;SDS011;5889;51.350;6.708;2024-03-02T10:08:46;1.37;;;0.80;;
11665;SDS011;5889;51.350;6.708;2024-03-02T10:11:24;2.47;;;0.90;;
11665;SDS011;5889;51.350;6.708;2024-03-02T10:14:03;1.07;;;0.90;;
11665;SDS011;5889;51.350;6.708;2024-03-02T10:16:33;2.27;;;1.00;;
11665;SDS011;5889;51.350;6.708;2024-03-02T10:19:16;4.03;;;1.50;;
11665;SDS011;5889;51.350;6.708;2024-03-02T10:21:44;2.47;;;1.00;;
11665;SDS011;5889;51.350;6.708;2024-03-02T10:24:11;2.00;;;0.93;;
11665;SDS011;5889;51.350;6.708;2024-03-02T10:26:38;1.37;;;1.20;;
11665;SDS011;5889;51.350;6.708;2024-03-02T10:29:06;2.57;;;0.90;;
11665;SDS011;5889;51.350;6.708;2024-03-02T10:31:35;3.37;;;1.27;;
11665;SDS011;5889;51.350;6.708;2024-03-02T10:34:03;2.83;;;1.07;;
11665;SDS011;5889;51.350;6.708;2024-03-02T10:36:32;3.13;;;1.00;;
11665;SDS011;5889;51.350;6.708;2024-03-02T10:39:01;1.77;;;1.00;;
11665;SDS011;5889;51.350;6.708;2024-03-02T10:41:29;1.50;;;1.00;;
11665;SDS011;5889;51.350;6.708;2024-03-02T10:43:58;3.03;;;1.00;;
11665;SDS011;5889;51.350;6.708;2024-03-02T10:46:28;0.87;;;0.80;;
11665;SDS011;5889;51.350;6.708;2024-03-02T10:48:55;1.73;;;0.90;;
11665;SDS011;5889;51.350;6.708;2024-03-02T10:51:24;2.90;;;1.10;;
11665;SDS011;5889;51.350;6.708;2024-03-02T10:53:54;3.27;;;1.07;;
11665;SDS011;5889;51.350;6.708;2024-03-02T10:56:21;1.37;;;0.70;;
11665;SDS011;5889;51.350;6.708;2024-03-02T10:58:54;2.63;;;1.20;;
11665;SDS011;5889;51.350;6.708;2024-03-02T11:01:27;3.13;;;0.70;;
11665;SDS011;5889;51.350;6.708;2024-03-02T11:03:56;2.53;;;1.13;;
11665;SDS011;5889;51.350;6.708;2024-03-02T11:06:23;3.80;;;0.90;;
11665;SDS011;5889;51.350;6.708;2024-03-02T11:08:54;3.63;;;0.90;;
11665;SDS011;5889;51.350;6.708;2024-03-02T11:11:29;1.87;;;0.90;;
11665;SDS011;5889;51.350;6.708;2024-03-02T11:14:00;3.43;;;0.90;;
11665;SDS011;5889;51.350;6.708;2024-03-02T11:16:33;2.27;;;1.00;;
11665;SDS011;5889;51.350;6.708;2024-03-02T11:19:01;2.90;;;0.80;;
11665;SDS011;5889;51.350;6.708;2024-03-02T11:21:30;3.13;;;0.80;;
11665;SDS011;5889;51.350;6.708;2024-03-02T11:24:00;2.57;;;0.90;;
11665;SDS011;5889;51.350;6.708;2024-03-02T11:26:28;3.40;;;1.00;;
11665;SDS011;5889;51.350;6.708;2024-03-02T11:28:54;1.97;;;0.90;;
11665;SDS011;5889;51.350;6.708;2024-03-02T11:34:28;3.03;;;1.17;;
11665;SDS011;5889;51.350;6.708;2024-03-02T11:36:55;2.23;;;1.30;;
11665;SDS011;5889;51.350;6.708;2024-03-02T11:39:25;2.57;;;1.13;;
11665;SDS011;5889;51.350;6.708;2024-03-02T11:41:52;1.57;;;1.10;;
11665;SDS011;5889;51.350;6.708;2024-03-02T11:44:19;3.27;;;1.20;;
11665;SDS011;5889;51.350;6.708;2024-03-02T11:46:46;4.30;;;1.53;;
11665;SDS011;5889;51.350;6.708;2024-03-02T11:49:20;6.57;;;2.10;;
11665;SDS011;5889;51.350;6.708;2024-03-02T11:52:03;4.87;;;1.90;;
11665;SDS011;5889;51.350;6.708;2024-03-02T11:54:33;3.77;;;2.03;;
11665;SDS011;5889;51.350;6.708;2024-03-02T11:57:01;3.83;;;1.80;;
11665;SDS011;5889;51.350;6.708;2024-03-02T11:59:29;8.13;;;2.40;;
11665;SDS011;5889;51.350;6.708;2024-03-02T12:01:56;6.20;;;1.73;;
11665;SDS011;5889;51.350;6.708;2024-03-02T12:04:24;4.53;;;1.50;;
11665;SDS011;5889;51.350;6.708;2024-03-02T12:06:54;3.37;;;1.60;;
11665;SDS011;5889;51.350;6.708;2024-03-02T12:09:21;2.43;;;1.67;;
11665;SDS011;5889;51.350;6.708;2024-03-02T12:11:57;4.60;;;1.70;;
11665;SDS011;5889;51.350;6.708;2024-03-02T12:14:28;2.63;;;1.73;;
11665;SDS011;5889;51.350;6.708;2024-03-02T12:16:55;3.37;;;1.60;;
11665;SDS011;5889;51.350;6.708;2024-03-02T12:19:23;3.53;;;1.60;;
11665;SDS011;5889;51.350;6.708;2024-03-02T12:21:50;3.00;;;1.50;;
11665;SDS011;5889;51.350;6.708;2024-03-02T12:24:18;3.17;;;1.50;;
11665;SDS011;5889;51.350;6.708;2024-03-02T12:26:45;3.63;;;1.60;;
11665;SDS011;5889;51.350;6.708;2024-03-02T12:29:14;3.13;;;1.30;;
11665;SDS011;5889;51.350;6.708;2024-03-02T12:31:42;3.43;;;1.50;;
11665;SDS011;5889;51.350;6.708;2024-03-02T12:34:10;4.10;;;1.53;;
11665;SDS011;5889;51.350;6.708;2024-03-02T12:36:39;1.90;;;1.13;;
11665;SDS011;5889;51.350;6.708;2024-03-02T12:39:07;2.33;;;1.40;;
11665;SDS011;5889;51.350;6.708;2024-03-02T12:41:35;4.10;;;1.50;;
11665;SDS011;5889;51.350;6.708;2024-03-02T12:44:03;3.00;;;1.70;;
11665;SDS011;5889;51.350;6.708;2024-03-02T12:46:32;4.33;;;1.57;;
11665;SDS011;5889;51.350;6.708;2024-03-02T12:49:04;2.00;;;1.23;;
11665;SDS011;5889;51.350;6.708;2024-03-02T12:51:34;2.23;;;1.40;;
11665;SDS011;5889;51.350;6.708;2024-03-02T12:54:02;2.57;;;1.27;;
11665;SDS011;5889;51.350;6.708;2024-03-02T12:56:30;3.50;;;0.90;;
11665;SDS011;5889;51.350;6.708;2024-03-02T12:58:58;1.53;;;0.90;;
11665;SDS011;5889;51.350;6.708;2024-03-02T13:01:25;2.33;;;1.10;;
11665;SDS011;5889;51.350;6.708;2024-03-02T13:03:54;2.73;;;1.07;;
11665;SDS011;5889;51.350;6.708;2024-03-02T13:06:22;3.17;;;1.07;;
11665;SDS011;5889;51.350;6.708;2024-03-02T13:08:52;1.43;;;1.03;;
11665;SDS011;5889;51.350;6.708;2024-03-02T13:11:20;2.70;;;1.10;;
11665;SDS011;5889;51.350;6.708;2024-03-02T13:13:48;1.23;;;1.10;;
11665;SDS011;5889;51.350;6.708;2024-03-02T13:16:15;2.87;;;1.17;;
11665;SDS011;5889;51.350;6.708;2024-03-02T13:18:44;1.30;;;1.03;;
11665;SDS011;5889;51.350;6.708;2024-03-02T13:21:12;3.37;;;1.20;;
11665;SDS011;5889;51.350;6.708;2024-03-02T13:23:39;2.30;;;1.20;;
11665;SDS011;5889;51.350;6.708;2024-03-02T13:26:06;1.20;;;1.10;;
11665;SDS011;5889;51.350;6.708;2024-03-02T13:28:35;2.17;;;1.30;;
11665;SDS011;5889;51.350;6.708;2024-03-02T13:31:03;3.00;;;1.20;;
11665;SDS011;5889;51.350;6.708;2024-03-02T13:33:30;1.90;;;1.30;;
11665;SDS011;5889;51.350;6.708;2024-03-02T13:35:58;3.77;;;1.33;;
11665;SDS011;5889;51.350;6.708;2024-03-02T13:38:27;1.57;;;1.13;;
11665;SDS011;5889;51.350;6.708;2024-03-02T13:40:53;4.03;;;1.20;;
11665;SDS011;5889;51.350;6.708;2024-03-02T13:43:20;3.47;;;1.20;;
11665;SDS011;5889;51.350;6.708;2024-03-02T13:45:48;1.70;;;1.20;;
11665;SDS011;5889;51.350;6.708;2024-03-02T13:48:18;2.67;;;1.40;;
11665;SDS011;5889;51.350;6.708;2024-03-02T13:50:45;3.77;;;1.20;;
11665;SDS011;5889;51.350;6.708;2024-03-02T13:53:12;1.63;;;1.10;;
11665;SDS011;5889;51.350;6.708;2024-03-02T13:55:40;1.17;;;1.00;;
11665;SDS011;5889;51.350;6.708;2024-03-02T13:58:08;1.90;;;1.20;;
11665;SDS011;5889;51.350;6.708;2024-03-02T14:00:35;3.80;;;1.20;;
11665;SDS011;5889;51.350;6.708;2024-03-02T14:03:03;1.20;;;1.10;;
11665;SDS011;5889;51.350;6.708;2024-03-02T14:05:32;2.10;;;1.00;;
11665;SDS011;5889;51.350;6.708;2024-03-02T14:07:58;2.40;;;1.07;;
11665;SDS011;5889;51.350;6.708;2024-03-02T14:10:26;1.37;;;0.90;;
11665;SDS011;5889;51.350;6.708;2024-03-02T14:12:55;1.23;;;0.80;;
11665;SDS011;5889;51.350;6.708;2024-03-02T14:15:22;1.20;;;0.90;;
11665;SDS011;5889;51.350;6.708;2024-03-02T14:17:49;2.37;;;1.10;;
11665;SDS011;5889;51.350;6.708;2024-03-02T14:20:16;1.53;;;1.00;;
11665;SDS011;5889;51.350;6.708;2024-03-02T14:22:47;1.87;;;1.00;;
11665;SDS011;5889;51.350;6.708;2024-03-02T14:25:14;3.67;;;1.47;;
11665;SDS011;5889;51.350;6.708;2024-03-02T14:27:41;1.30;;;1.00;;
11665;SDS011;5889;51.350;6.708;2024-03-02T14:30:10;2.70;;;1.07;;
11665;SDS011;5889;51.350;6.708;2024-03-02T14:32:38;3.80;;;0.90;;
11665;SDS011;5889;51.350;6.708;2024-03-02T14:35:05;1.63;;;0.90;;
11665;SDS011;5889;51.350;6.708;2024-03-02T14:37:35;1.03;;;0.90;;
11665;SDS011;5889;51.350;6.708;2024-03-02T14:40:02;1.20;;;1.10;;
11665;SDS011;5889;51.350;6.708;2024-03-02T14:42:31;3.13;;;1.23;;
11665;SDS011;5889;51.350;6.708;2024-03-02T14:44:58;1.93;;;1.00;;
11665;SDS011;5889;51.350;6.708;2024-03-02T14:47:29;1.37;;;1.03;;
11665;SDS011;5889;51.350;6.708;2024-03-02T14:49:58;2.80;;;0.90;;
11665;SDS011;5889;51.350;6.708;2024-03-02T14:52:25;1.20;;;0.87;;
11665;SDS011;5889;51.350;6.708;2024-03-02T14:54:52;2.53;;;1.40;;
11665;SDS011;5889;51.350;6.708;2024-03-02T14:57:22;4.10;;;1.57;;
11665;SDS011;5889;51.350;6.708;2024-03-02T14:59:49;1.47;;;1.00;;
11665;SDS011;5889;51.350;6.708;2024-03-02T15:02:16;1.10;;;1.00;;
11665;SDS011;5889;51.350;6.708;2024-03-02T15:04:44;1.40;;;1.00;;
11665;SDS011;5889;51.350;6.708;2024-03-02T15:07:13;1.40;;;1.00;;
11665;SDS011;5889;51.350;6.708;2024-03-02T15:09:39;1.13;;;0.83;;
11665;SDS011;5889;51.350;6.708;2024-03-02T15:12:06;3.10;;;1.07;;
11665;SDS011;5889;51.350;6.708;2024-03-02T15:14:37;1.50;;;1.00;;